sensor_id;sensor_type;location;lat;lon;timestamp;P1;durP1;ratioP1;P2;durP2;ratioP2
41263;SDS011;26998;48.714;9.414;2022-10-26T00:00:49;14.02;;;8.73;;
41263;SDS011;26998;48.714;9.414;2022-10-26T00:03:17;12.02;;;6.20;;
41263;SDS011;26998;48.714;9.414;2022-10-26T00:05:44;14.82;;;5.43;;
41263;SDS011;26998;48.714;9.414;2022-10-26T00:08:10;10.95;;;5.30;;
41263;SDS011;26998;48.714;9.414;2022-10-26T00:10:37;8.90;;;3.97;;
41263;SDS011;26998;48.714;9.414;2022-10-26T00:13:05;7.20;;;3.70;;
41263;SDS011;26998;48.714;9.414;2022-10-26T00:15:33;9.73;;;4.57;;
41263;SDS011;26998;48.714;9.414;2022-10-26T00:18:00;12.30;;;4.85;;
41263;SDS011;26998;48.714;9.414;2022-10-26T00:20:27;8.73;;;3.90;;
41263;SDS011;26998;48.714;9.414;2022-10-26T00:22:53;10.45;;;4.72;;
41263;SDS011;26998;48.714;9.414;2022-10-26T00:25:20;5.97;;;3.70;;
41263;SDS011;26998;48.714;9.414;2022-10-26T00:27:46;9.35;;;4.07;;
41263;SDS011;26998;48.714;9.414;2022-10-26T00:30:13;9.20;;;4.05;;
41263;SDS011;26998;48.714;9.414;2022-10-26T00:32:39;7.88;;;3.55;;
41263;SDS011;26998;48.714;9.414;2022-10-26T00:35:06;8.45;;;3.85;;
41263;SDS011;26998;48.714;9.414;2022-10-26T00:37:52;8.43;;;3.90;;
41263;SDS011;26998;48.714;9.414;2022-10-26T00:40:19;8.38;;;3.90;;
41263;SDS011;26998;48.714;9.414;2022-10-26T00:42:46;8.00;;;4.18;;
41263;SDS011;26998;48.714;9.414;2022-10-26T00:45:20;9.95;;;4.57;;
41263;SDS011;26998;48.714;9.414;2022-10-26T00:47:50;10.38;;;4.22;;
41263;SDS011;26998;48.714;9.414;2022-10-26T00:50:32;8.73;;;4.38;;
41263;SDS011;26998;48.714;9.414;2022-10-26T00:53:04;9.68;;;4.65;;
41263;SDS011;26998;48.714;9.414;2022-10-26T00:55:33;12.38;;;3.80;;
41263;SDS011;26998;48.714;9.414;2022-10-26T00:58:02;8.95;;;4.00;;
41263;SDS011;26998;48.714;9.414;2022-10-26T01:00:31;6.63;;;4.35;;
41263;SDS011;26998;48.714;9.414;2022-10-26T01:02:59;5.63;;;3.97;;
41263;SDS011;26998;48.714;9.414;2022-10-26T01:05:29;11.82;;;4.20;;
41263;SDS011;26998;48.714;9.414;2022-10-26T01:07:57;7.20;;;3.58;;
41263;SDS011;26998;48.714;9.414;2022-10-26T01:10:24;8.20;;;3.83;;
41263;SDS011;26998;48.714;9.414;2022-10-26T01:12:53;4.90;;;3.55;;
41263;SDS011;26998;48.714;9.414;2022-10-26T01:15:21;13.52;;;4.32;;
41263;SDS011;26998;48.714;9.414;2022-10-26T01:18:01;7.43;;;3.58;;
41263;SDS011;26998;48.714;9.414;2022-10-26T01:23:38;7.38;;;4.60;;
41263;SDS011;26998;48.714;9.414;2022-10-26T01:32:19;7.82;;;4.63;;
41263;SDS011;26998;48.714;9.414;2022-10-26T01:37:40;7.60;;;5.22;;
41263;SDS011;26998;48.714;9.414;2022-10-26T01:40:18;6.47;;;4.65;;
41263;SDS011;26998;48.714;9.414;2022-10-26T01:42:53;6.80;;;4.85;;
41263;SDS011;26998;48.714;9.414;2022-10-26T01:45:22;10.10;;;4.90;;
41263;SDS011;26998;48.714;9.414;2022-10-26T01:47:50;9.57;;;5.15;;
41263;SDS011;26998;48.714;9.414;2022-10-26T01:50:18;8.65;;;4.82;;
41263;SDS011;26998;48.714;9.414;2022-10-26T01:52:48;11.57;;;5.40;;
41263;SDS011;26998;48.714;9.414;2022-10-26T01:58:15;9.65;;;5.13;;
41263;SDS011;26998;48.714;9.414;2022-10-26T02:00:52;10.18;;;5.55;;
41263;SDS011;26998;48.714;9.414;2022-10-26T02:03:41;16.73;;;5.88;;
41263;SDS011;26998;48.714;9.414;2022-10-26T02:06:18;8.48;;;5.10;;
41263;SDS011;26998;48.714;9.414;2022-10-26T02:09:01;9.65;;;5.07;;
41263;SDS011;26998;48.714;9.414;2022-10-26T02:11:42;10.77;;;4.97;;
41263;SDS011;26998;48.714;9.414;2022-10-26T02:14:13;6.75;;;5.20;;
41263;SDS011;26998;48.714;9.414;2022-10-26T02:17:04;13.57;;;6.18;;
41263;SDS011;26998;48.714;9.414;2022-10-26T02:19:37;9.25;;;5.15;;
41263;SDS011;26998;48.714;9.414;2022-10-26T02:22:41;12.02;;;5.38;;
41263;SDS011;26998;48.714;9.414;2022-10-26T02:25:21;9.70;;;5.57;;
41263;SDS011;26998;48.714;9.414;2022-10-26T02:27:52;8.93;;;5.25;;
41263;SDS011;26998;48.714;9.414;2022-10-26T02:30:25;8.57;;;5.28;;
41263;SDS011;26998;48.714;9.414;2022-10-26T02:32:52;8.50;;;4.70;;
41263;SDS011;26998;48.714;9.414;2022-10-26T02:35:22;8.00;;;5.38;;
41263;SDS011;26998;48.714;9.414;2022-10-26T02:37:55;7.75;;;5.32;;
41263;SDS011;26998;48.714;9.414;2022-10-26T02:40:26;10.50;;;4.75;;
41263;SDS011;26998;48.714;9.414;2022-10-26T02:42:54;14.77;;;6.00;;
41263;SDS011;26998;48.714;9.414;2022-10-26T02:45:27;6.05;;;5.10;;
41263;SDS011;26998;48.714;9.414;2022-10-26T02:47:58;8.48;;;4.63;;
41263;SDS011;26998;48.714;9.414;2022-10-26T02:50:50;11.68;;;5.50;;
41263;SDS011;26998;48.714;9.414;2022-10-26T02:56:21;16.90;;;5.50;;
41263;SDS011;26998;48.714;9.414;2022-10-26T02:58:54;11.15;;;5.10;;
41263;SDS011;26998;48.714;9.414;2022-10-26T03:01:24;12.15;;;5.35;;
41263;SDS011;26998;48.714;9.414;2022-10-26T03:03:56;11.20;;;9.25;;
41263;SDS011;26998;48.714;9.414;2022-10-26T03:06:24;12.77;;;6.03;;
41263;SDS011;26998;48.714;9.414;2022-10-26T03:08:51;11.65;;;5.63;;
41263;SDS011;26998;48.714;9.414;2022-10-26T03:11:18;11.48;;;5.72;;
41263;SDS011;26998;48.714;9.414;2022-10-26T03:13:44;12.82;;;5.50;;
41263;SDS011;26998;48.714;9.414;2022-10-26T03:16:11;9.13;;;5.45;;
41263;SDS011;26998;48.714;9.414;2022-10-26T03:18:37;9.10;;;5.38;;
41263;SDS011;26998;48.714;9.414;2022-10-26T03:21:04;11.30;;;4.80;;
41263;SDS011;26998;48.714;9.414;2022-10-26T03:23:30;9.10;;;5.32;;
41263;SDS011;26998;48.714;9.414;2022-10-26T03:25:57;11.23;;;5.60;;
41263;SDS011;26998;48.714;9.414;2022-10-26T03:28:24;13.43;;;5.82;;
41263;SDS011;26998;48.714;9.414;2022-10-26T03:30:50;10.80;;;5.03;;
41263;SDS011;26998;48.714;9.414;2022-10-26T03:33:17;10.10;;;5.13;;
41263;SDS011;26998;48.714;9.414;2022-10-26T03:35:44;9.50;;;5.30;;
41263;SDS011;26998;48.714;9.414;2022-10-26T03:38:10;8.32;;;5.05;;
41263;SDS011;26998;48.714;9.414;2022-10-26T03:43:07;7.13;;;5.00;;
41263;SDS011;26998;48.714;9.414;2022-10-26T03:45:34;7.85;;;5.63;;
41263;SDS011;26998;48.714;9.414;2022-10-26T03:48:00;8.02;;;4.80;;
41263;SDS011;26998;48.714;9.414;2022-10-26T03:50:27;6.05;;;4.45;;
41263;SDS011;26998;48.714;9.414;2022-10-26T03:52:53;10.00;;;5.00;;
41263;SDS011;26998;48.714;9.414;2022-10-26T03:55:20;6.32;;;4.82;;
41263;SDS011;26998;48.714;9.414;2022-10-26T03:57:46;14.38;;;5.45;;
41263;SDS011;26998;48.714;9.414;2022-10-26T04:00:14;12.48;;;5.20;;
41263;SDS011;26998;48.714;9.414;2022-10-26T04:02:42;8.70;;;5.28;;
41263;SDS011;26998;48.714;9.414;2022-10-26T04:05:09;10.82;;;5.82;;
41263;SDS011;26998;48.714;9.414;2022-10-26T04:07:36;6.78;;;4.63;;
41263;SDS011;26998;48.714;9.414;2022-10-26T04:10:03;12.32;;;4.93;;
41263;SDS011;26998;48.714;9.414;2022-10-26T04:12:30;12.38;;;5.45;;
41263;SDS011;26998;48.714;9.414;2022-10-26T04:14:56;11.13;;;5.07;;
41263;SDS011;26998;48.714;9.414;2022-10-26T04:17:23;7.88;;;4.60;;
41263;SDS011;26998;48.714;9.414;2022-10-26T04:19:49;5.65;;;4.32;;
41263;SDS011;26998;48.714;9.414;2022-10-26T04:22:16;8.32;;;4.65;;
41263;SDS011;26998;48.714;9.414;2022-10-26T04:24:42;7.82;;;4.90;;
41263;SDS011;26998;48.714;9.414;2022-10-26T04:27:09;7.32;;;6.10;;
41263;SDS011;26998;48.714;9.414;2022-10-26T04:29:35;9.52;;;5.85;;
41263;SDS011;26998;48.714;9.414;2022-10-26T04:32:02;9.02;;;5.28;;
41263;SDS011;26998;48.714;9.414;2022-10-26T04:34:28;9.30;;;4.95;;
41263;SDS011;26998;48.714;9.414;2022-10-26T04:36:55;11.02;;;5.00;;
41263;SDS011;26998;48.714;9.414;2022-10-26T04:39:22;14.40;;;5.50;;
41263;SDS011;26998;48.714;9.414;2022-10-26T04:41:48;11.60;;;5.80;;
41263;SDS011;26998;48.714;9.414;2022-10-26T04:44:17;7.80;;;5.22;;
41263;SDS011;26998;48.714;9.414;2022-10-26T04:46:44;8.90;;;5.38;;
41263;SDS011;26998;48.714;9.414;2022-10-26T04:49:10;6.57;;;4.88;;
41263;SDS011;26998;48.714;9.414;2022-10-26T04:51:36;11.30;;;5.65;;
41263;SDS011;26998;48.714;9.414;2022-10-26T04:54:03;7.53;;;5.25;;
41263;SDS011;26998;48.714;9.414;2022-10-26T04:56:30;10.52;;;5.32;;
41263;SDS011;26998;48.714;9.414;2022-10-26T04:58:56;7.88;;;4.85;;
41263;SDS011;26998;48.714;9.414;2022-10-26T05:01:23;9.90;;;5.43;;
41263;SDS011;26998;48.714;9.414;2022-10-26T05:03:53;8.82;;;6.05;;
41263;SDS011;26998;48.714;9.414;2022-10-26T05:06:21;7.75;;;5.55;;
41263;SDS011;26998;48.714;9.414;2022-10-26T05:08:47;11.10;;;5.45;;
41263;SDS011;26998;48.714;9.414;2022-10-26T05:11:14;9.73;;;5.68;;
41263;SDS011;26998;48.714;9.414;2022-10-26T05:13:41;7.28;;;5.90;;
41263;SDS011;26998;48.714;9.414;2022-10-26T05:16:08;9.48;;;6.18;;
41263;SDS011;26998;48.714;9.414;2022-10-26T05:18:34;7.75;;;5.72;;
41263;SDS011;26998;48.714;9.414;2022-10-26T05:21:01;12.90;;;6.28;;
41263;SDS011;26998;48.714;9.414;2022-10-26T05:23:27;9.88;;;6.28;;
41263;SDS011;26998;48.714;9.414;2022-10-26T05:25:54;10.05;;;5.80;;
41263;SDS011;26998;48.714;9.414;2022-10-26T05:28:20;9.13;;;6.03;;
41263;SDS011;26998;48.714;9.414;2022-10-26T05:30:47;11.07;;;7.13;;
41263;SDS011;26998;48.714;9.414;2022-10-26T05:33:14;9.43;;;6.07;;
41263;SDS011;26998;48.714;9.414;2022-10-26T05:35:40;13.43;;;6.53;;
41263;SDS011;26998;48.714;9.414;2022-10-26T05:38:08;12.05;;;6.50;;
41263;SDS011;26998;48.714;9.414;2022-10-26T05:40:36;7.90;;;5.80;;
41263;SDS011;26998;48.714;9.414;2022-10-26T05:43:02;13.80;;;6.90;;
41263;SDS011;26998;48.714;9.414;2022-10-26T05:45:29;10.50;;;6.95;;
41263;SDS011;26998;48.714;9.414;2022-10-26T05:47:56;16.25;;;7.88;;
41263;SDS011;26998;48.714;9.414;2022-10-26T05:50:28;11.00;;;7.15;;
41263;SDS011;26998;48.714;9.414;2022-10-26T05:52:54;11.23;;;6.90;;
41263;SDS011;26998;48.714;9.414;2022-10-26T05:55:21;10.75;;;6.45;;
41263;SDS011;26998;48.714;9.414;2022-10-26T05:57:48;9.75;;;6.70;;
41263;SDS011;26998;48.714;9.414;2022-10-26T06:00:22;9.90;;;6.40;;
41263;SDS011;26998;48.714;9.414;2022-10-26T06:05:55;11.90;;;7.03;;
41263;SDS011;26998;48.714;9.414;2022-10-26T06:08:27;13.48;;;7.00;;
41263;SDS011;26998;48.714;9.414;2022-10-26T06:10:54;13.25;;;7.28;;
41263;SDS011;26998;48.714;9.414;2022-10-26T06:13:22;11.00;;;6.88;;
41263;SDS011;26998;48.714;9.414;2022-10-26T06:15:55;12.73;;;6.47;;
41263;SDS011;26998;48.714;9.414;2022-10-26T06:18:51;9.43;;;6.00;;
41263;SDS011;26998;48.714;9.414;2022-10-26T06:24:32;15.15;;;8.23;;
41263;SDS011;26998;48.714;9.414;2022-10-26T06:30:13;10.45;;;6.97;;
41263;SDS011;26998;48.714;9.414;2022-10-26T06:32:44;9.52;;;6.78;;
41263;SDS011;26998;48.714;9.414;2022-10-26T06:35:14;8.18;;;6.35;;
41263;SDS011;26998;48.714;9.414;2022-10-26T06:38:05;12.98;;;7.38;;
41263;SDS011;26998;48.714;9.414;2022-10-26T06:40:35;12.48;;;7.30;;
41263;SDS011;26998;48.714;9.414;2022-10-26T06:43:12;11.90;;;7.57;;
41263;SDS011;26998;48.714;9.414;2022-10-26T06:45:47;12.15;;;7.43;;
41263;SDS011;26998;48.714;9.414;2022-10-26T06:48:20;13.32;;;7.85;;
41263;SDS011;26998;48.714;9.414;2022-10-26T06:50:53;12.70;;;6.10;;
41263;SDS011;26998;48.714;9.414;2022-10-26T06:53:28;9.18;;;6.50;;
41263;SDS011;26998;48.714;9.414;2022-10-26T06:55:58;9.93;;;6.90;;
41263;SDS011;26998;48.714;9.414;2022-10-26T06:58:30;10.40;;;7.78;;
41263;SDS011;26998;48.714;9.414;2022-10-26T07:01:01;13.32;;;7.05;;
41263;SDS011;26998;48.714;9.414;2022-10-26T07:03:28;14.05;;;7.85;;
41263;SDS011;26998;48.714;9.414;2022-10-26T07:05:55;19.17;;;10.68;;
41263;SDS011;26998;48.714;9.414;2022-10-26T07:08:21;14.98;;;9.52;;
41263;SDS011;26998;48.714;9.414;2022-10-26T07:10:48;20.35;;;10.82;;
41263;SDS011;26998;48.714;9.414;2022-10-26T07:13:14;19.20;;;10.18;;
41263;SDS011;26998;48.714;9.414;2022-10-26T07:15:41;24.70;;;12.32;;
41263;SDS011;26998;48.714;9.414;2022-10-26T07:18:08;19.10;;;11.35;;
41263;SDS011;26998;48.714;9.414;2022-10-26T07:20:38;17.23;;;10.50;;
41263;SDS011;26998;48.714;9.414;2022-10-26T07:23:06;18.90;;;9.80;;
41263;SDS011;26998;48.714;9.414;2022-10-26T07:25:34;19.45;;;10.13;;
41263;SDS011;26998;48.714;9.414;2022-10-26T07:28:00;14.60;;;8.68;;
41263;SDS011;26998;48.714;9.414;2022-10-26T07:30:28;17.83;;;8.18;;
41263;SDS011;26998;48.714;9.414;2022-10-26T07:33:01;10.73;;;7.95;;
41263;SDS011;26998;48.714;9.414;2022-10-26T07:35:38;12.57;;;8.60;;
41263;SDS011;26998;48.714;9.414;2022-10-26T07:38:06;12.40;;;8.30;;
41263;SDS011;26998;48.714;9.414;2022-10-26T07:40:35;13.00;;;8.00;;
41263;SDS011;26998;48.714;9.414;2022-10-26T07:43:02;13.05;;;7.20;;
41263;SDS011;26998;48.714;9.414;2022-10-26T07:45:28;13.27;;;7.75;;
41263;SDS011;26998;48.714;9.414;2022-10-26T07:47:55;10.98;;;7.18;;
41263;SDS011;26998;48.714;9.414;2022-10-26T07:50:23;14.00;;;7.25;;
41263;SDS011;26998;48.714;9.414;2022-10-26T07:52:50;9.43;;;6.72;;
41263;SDS011;26998;48.714;9.414;2022-10-26T07:55:17;14.68;;;7.07;;
41263;SDS011;26998;48.714;9.414;2022-10-26T07:57:43;10.57;;;6.93;;
41263;SDS011;26998;48.714;9.414;2022-10-26T08:00:13;11.65;;;6.72;;
41263;SDS011;26998;48.714;9.414;2022-10-26T08:02:40;13.77;;;7.22;;
41263;SDS011;26998;48.714;9.414;2022-10-26T08:05:07;12.30;;;8.18;;
41263;SDS011;26998;48.714;9.414;2022-10-26T08:07:33;14.25;;;9.95;;
41263;SDS011;26998;48.714;9.414;2022-10-26T08:10:05;15.85;;;9.65;;
41263;SDS011;26998;48.714;9.414;2022-10-26T08:12:32;12.32;;;7.25;;
41263;SDS011;26998;48.714;9.414;2022-10-26T08:14:58;11.77;;;6.32;;
41263;SDS011;26998;48.714;9.414;2022-10-26T08:17:25;17.27;;;7.10;;
41263;SDS011;26998;48.714;9.414;2022-10-26T08:19:51;5.95;;;5.03;;
41263;SDS011;26998;48.714;9.414;2022-10-26T08:22:18;9.48;;;5.95;;
41263;SDS011;26998;48.714;9.414;2022-10-26T08:24:44;18.08;;;6.95;;
41263;SDS011;26998;48.714;9.414;2022-10-26T08:27:12;10.15;;;6.25;;
41263;SDS011;26998;48.714;9.414;2022-10-26T08:29:39;12.55;;;6.78;;
41263;SDS011;26998;48.714;9.414;2022-10-26T08:32:07;20.48;;;7.15;;
41263;SDS011;26998;48.714;9.414;2022-10-26T08:34:33;12.40;;;5.82;;
41263;SDS011;26998;48.714;9.414;2022-10-26T08:36:59;15.73;;;6.40;;
41263;SDS011;26998;48.714;9.414;2022-10-26T08:39:26;11.43;;;6.68;;
41263;SDS011;26998;48.714;9.414;2022-10-26T08:41:55;10.00;;;7.25;;
41263;SDS011;26998;48.714;9.414;2022-10-26T08:44:30;13.93;;;8.13;;
41263;SDS011;26998;48.714;9.414;2022-10-26T08:47:08;15.55;;;10.18;;
41263;SDS011;26998;48.714;9.414;2022-10-26T08:55:24;9.98;;;6.93;;
41263;SDS011;26998;48.714;9.414;2022-10-26T08:57:54;11.98;;;6.88;;
41263;SDS011;26998;48.714;9.414;2022-10-26T09:00:22;11.23;;;6.28;;
41263;SDS011;26998;48.714;9.414;2022-10-26T09:02:53;10.90;;;6.35;;
41263;SDS011;26998;48.714;9.414;2022-10-26T09:05:26;11.07;;;6.93;;
41263;SDS011;26998;48.714;9.414;2022-10-26T09:16:09;9.82;;;6.07;;
41263;SDS011;26998;48.714;9.414;2022-10-26T09:24:38;12.25;;;6.03;;
41263;SDS011;26998;48.714;9.414;2022-10-26T09:27:28;10.13;;;6.00;;
41263;SDS011;26998;48.714;9.414;2022-10-26T09:29:59;12.98;;;6.70;;
41263;SDS011;26998;48.714;9.414;2022-10-26T09:32:36;10.13;;;6.10;;
41263;SDS011;26998;48.714;9.414;2022-10-26T09:35:17;11.32;;;6.25;;
41263;SDS011;26998;48.714;9.414;2022-10-26T09:37:52;9.40;;;5.22;;
41263;SDS011;26998;48.714;9.414;2022-10-26T09:40:24;5.55;;;4.25;;
41263;SDS011;26998;48.714;9.414;2022-10-26T09:43:00;7.28;;;4.80;;
41263;SDS011;26998;48.714;9.414;2022-10-26T09:45:32;7.80;;;3.45;;
41263;SDS011;26998;48.714;9.414;2022-10-26T09:50:51;7.80;;;3.08;;
41263;SDS011;26998;48.714;9.414;2022-10-26T09:53:18;4.75;;;3.20;;
41263;SDS011;26998;48.714;9.414;2022-10-26T09:55:45;9.00;;;3.65;;
41263;SDS011;26998;48.714;9.414;2022-10-26T09:58:22;6.87;;;3.00;;
41263;SDS011;26998;48.714;9.414;2022-10-26T10:00:53;6.43;;;3.20;;
41263;SDS011;26998;48.714;9.414;2022-10-26T10:03:23;5.82;;;3.42;;
41263;SDS011;26998;48.714;9.414;2022-10-26T10:05:51;4.85;;;3.40;;
41263;SDS011;26998;48.714;9.414;2022-10-26T10:08:22;5.68;;;2.92;;
41263;SDS011;26998;48.714;9.414;2022-10-26T10:10:57;7.53;;;3.03;;
41263;SDS011;26998;48.714;9.414;2022-10-26T10:13:33;8.15;;;2.97;;
41263;SDS011;26998;48.714;9.414;2022-10-26T10:16:03;5.50;;;3.15;;
41263;SDS011;26998;48.714;9.414;2022-10-26T10:18:30;6.30;;;3.38;;
41263;SDS011;26998;48.714;9.414;2022-10-26T10:20:57;8.75;;;3.20;;
41263;SDS011;26998;48.714;9.414;2022-10-26T10:28:30;7.88;;;3.45;;
41263;SDS011;26998;48.714;9.414;2022-10-26T10:30:57;5.70;;;3.00;;
41263;SDS011;26998;48.714;9.414;2022-10-26T10:33:40;9.70;;;3.33;;
41263;SDS011;26998;48.714;9.414;2022-10-26T10:36:09;6.40;;;3.55;;
41263;SDS011;26998;48.714;9.414;2022-10-26T10:38:41;9.70;;;3.50;;
41263;SDS011;26998;48.714;9.414;2022-10-26T10:41:14;4.93;;;3.15;;
41263;SDS011;26998;48.714;9.414;2022-10-26T10:44:04;6.80;;;3.08;;
41263;SDS011;26998;48.714;9.414;2022-10-26T10:46:44;11.27;;;3.45;;
41263;SDS011;26998;48.714;9.414;2022-10-26T10:49:22;10.50;;;3.50;;
41263;SDS011;26998;48.714;9.414;2022-10-26T10:51:51;7.32;;;3.10;;
41263;SDS011;26998;48.714;9.414;2022-10-26T10:54:20;7.40;;;3.67;;
41263;SDS011;26998;48.714;9.414;2022-10-26T10:56:50;8.25;;;3.42;;
41263;SDS011;26998;48.714;9.414;2022-10-26T11:07:57;5.68;;;2.78;;
41263;SDS011;26998;48.714;9.414;2022-10-26T11:10:32;8.45;;;2.85;;
41263;SDS011;26998;48.714;9.414;2022-10-26T11:13:10;4.78;;;2.78;;
41263;SDS011;26998;48.714;9.414;2022-10-26T11:15:49;6.78;;;2.80;;
41263;SDS011;26998;48.714;9.414;2022-10-26T11:18:23;11.15;;;3.65;;
41263;SDS011;26998;48.714;9.414;2022-10-26T11:20:59;6.05;;;3.22;;
41263;SDS011;26998;48.714;9.414;2022-10-26T11:23:43;10.95;;;2.90;;
41263;SDS011;26998;48.714;9.414;2022-10-26T11:26:23;6.22;;;2.85;;
41263;SDS011;26998;48.714;9.414;2022-10-26T11:29:03;4.30;;;2.60;;
41263;SDS011;26998;48.714;9.414;2022-10-26T11:31:38;5.60;;;2.30;;
41263;SDS011;26998;48.714;9.414;2022-10-26T11:37:03;9.20;;;3.03;;
41263;SDS011;26998;48.714;9.414;2022-10-26T11:39:46;7.50;;;3.05;;
41263;SDS011;26998;48.714;9.414;2022-10-26T11:42:45;5.90;;;2.95;;
41263;SDS011;26998;48.714;9.414;2022-10-26T11:45:16;5.72;;;2.40;;
41263;SDS011;26998;48.714;9.414;2022-10-26T11:48:00;5.65;;;2.75;;
41263;SDS011;26998;48.714;9.414;2022-10-26T11:50:35;10.82;;;2.92;;
41263;SDS011;26998;48.714;9.414;2022-10-26T11:53:11;8.00;;;3.05;;
41263;SDS011;26998;48.714;9.414;2022-10-26T11:55:44;8.77;;;2.58;;
41263;SDS011;26998;48.714;9.414;2022-10-26T11:58:29;5.38;;;2.42;;
41263;SDS011;26998;48.714;9.414;2022-10-26T12:01:02;6.13;;;2.92;;
41263;SDS011;26998;48.714;9.414;2022-10-26T12:03:35;5.53;;;2.13;;
41263;SDS011;26998;48.714;9.414;2022-10-26T12:06:04;8.02;;;2.70;;
41263;SDS011;26998;48.714;9.414;2022-10-26T12:08:34;10.65;;;3.28;;
41263;SDS011;26998;48.714;9.414;2022-10-26T12:13:49;6.32;;;2.25;;
41263;SDS011;26998;48.714;9.414;2022-10-26T12:21:55;6.82;;;3.00;;
41263;SDS011;26998;48.714;9.414;2022-10-26T12:26:52;7.15;;;1.95;;
41263;SDS011;26998;48.714;9.414;2022-10-26T12:31:52;6.35;;;2.20;;
41263;SDS011;26998;48.714;9.414;2022-10-26T12:39:28;8.98;;;2.70;;
41263;SDS011;26998;48.714;9.414;2022-10-26T12:47:04;10.80;;;3.08;;
41263;SDS011;26998;48.714;9.414;2022-10-26T13:00:35;7.55;;;2.45;;
41263;SDS011;26998;48.714;9.414;2022-10-26T13:03:24;7.65;;;2.80;;
41263;SDS011;26998;48.714;9.414;2022-10-26T13:08:41;9.45;;;3.13;;
41263;SDS011;26998;48.714;9.414;2022-10-26T13:11:28;9.18;;;2.83;;
41263;SDS011;26998;48.714;9.414;2022-10-26T13:13:57;6.57;;;2.50;;
41263;SDS011;26998;48.714;9.414;2022-10-26T13:16:28;8.07;;;2.90;;
41263;SDS011;26998;48.714;9.414;2022-10-26T13:18:56;27.95;;;6.25;;
41263;SDS011;26998;48.714;9.414;2022-10-26T13:21:23;16.98;;;4.18;;
41263;SDS011;26998;48.714;9.414;2022-10-26T13:23:55;10.80;;;2.97;;
41263;SDS011;26998;48.714;9.414;2022-10-26T13:26:24;7.40;;;2.75;;
41263;SDS011;26998;48.714;9.414;2022-10-26T13:29:02;8.13;;;2.53;;
41263;SDS011;26998;48.714;9.414;2022-10-26T13:34:08;11.10;;;2.58;;
41263;SDS011;26998;48.714;9.414;2022-10-26T13:36:44;5.25;;;2.20;;
41263;SDS011;26998;48.714;9.414;2022-10-26T13:39:23;5.40;;;2.20;;
41263;SDS011;26998;48.714;9.414;2022-10-26T13:41:55;3.80;;;1.90;;
41263;SDS011;26998;48.714;9.414;2022-10-26T13:47:18;5.88;;;2.75;;
41263;SDS011;26998;48.714;9.414;2022-10-26T13:50:15;4.95;;;2.33;;
41263;SDS011;26998;48.714;9.414;2022-10-26T13:52:46;12.13;;;3.08;;
41263;SDS011;26998;48.714;9.414;2022-10-26T13:55:20;7.43;;;3.05;;
41263;SDS011;26998;48.714;9.414;2022-10-26T13:58:01;12.63;;;2.88;;
41263;SDS011;26998;48.714;9.414;2022-10-26T14:03:38;6.05;;;2.53;;
41263;SDS011;26998;48.714;9.414;2022-10-26T14:06:09;5.72;;;2.65;;
41263;SDS011;26998;48.714;9.414;2022-10-26T14:08:37;8.05;;;3.17;;
41263;SDS011;26998;48.714;9.414;2022-10-26T14:11:06;5.20;;;2.35;;
41263;SDS011;26998;48.714;9.414;2022-10-26T14:13:37;5.75;;;2.53;;
41263;SDS011;26998;48.714;9.414;2022-10-26T14:16:08;10.98;;;3.15;;
41263;SDS011;26998;48.714;9.414;2022-10-26T14:18:40;6.15;;;2.20;;
41263;SDS011;26998;48.714;9.414;2022-10-26T14:21:12;7.90;;;2.78;;
41263;SDS011;26998;48.714;9.414;2022-10-26T14:26:25;5.07;;;2.20;;
41263;SDS011;26998;48.714;9.414;2022-10-26T14:28:58;5.38;;;2.60;;
41263;SDS011;26998;48.714;9.414;2022-10-26T14:31:32;5.15;;;2.45;;
41263;SDS011;26998;48.714;9.414;2022-10-26T14:33:59;7.68;;;2.75;;
41263;SDS011;26998;48.714;9.414;2022-10-26T14:36:35;6.47;;;2.33;;
41263;SDS011;26998;48.714;9.414;2022-10-26T14:39:34;6.05;;;2.47;;
41263;SDS011;26998;48.714;9.414;2022-10-26T14:42:03;5.38;;;2.63;;
41263;SDS011;26998;48.714;9.414;2022-10-26T14:44:40;8.05;;;2.95;;
41263;SDS011;26998;48.714;9.414;2022-10-26T14:50:03;4.55;;;1.85;;
41263;SDS011;26998;48.714;9.414;2022-10-26T14:52:31;6.72;;;4.25;;
41263;SDS011;26998;48.714;9.414;2022-10-26T14:55:11;7.20;;;2.75;;
41263;SDS011;26998;48.714;9.414;2022-10-26T14:57:41;8.40;;;2.53;;
41263;SDS011;26998;48.714;9.414;2022-10-26T15:00:24;8.48;;;2.42;;
41263;SDS011;26998;48.714;9.414;2022-10-26T15:02:52;9.23;;;2.97;;
41263;SDS011;26998;48.714;9.414;2022-10-26T15:05:27;6.07;;;2.88;;
41263;SDS011;26998;48.714;9.414;2022-10-26T15:08:00;8.20;;;2.45;;
41263;SDS011;26998;48.714;9.414;2022-10-26T15:13:09;7.93;;;3.03;;
41263;SDS011;26998;48.714;9.414;2022-10-26T15:15:43;5.85;;;2.45;;
41263;SDS011;26998;48.714;9.414;2022-10-26T15:18:25;5.97;;;2.15;;
41263;SDS011;26998;48.714;9.414;2022-10-26T15:20:54;4.55;;;2.35;;
41263;SDS011;26998;48.714;9.414;2022-10-26T15:23:22;5.72;;;2.63;;
41263;SDS011;26998;48.714;9.414;2022-10-26T15:28:37;8.77;;;2.78;;
41263;SDS011;26998;48.714;9.414;2022-10-26T15:33:35;4.90;;;2.90;;
41263;SDS011;26998;48.714;9.414;2022-10-26T15:36:11;6.23;;;2.70;;
41263;SDS011;26998;48.714;9.414;2022-10-26T15:38:42;6.18;;;2.67;;
41263;SDS011;26998;48.714;9.414;2022-10-26T15:43:57;4.50;;;2.58;;
41263;SDS011;26998;48.714;9.414;2022-10-26T15:46:29;6.38;;;2.33;;
41263;SDS011;26998;48.714;9.414;2022-10-26T15:48:58;4.25;;;2.30;;
41263;SDS011;26998;48.714;9.414;2022-10-26T15:51:27;7.20;;;2.40;;
41263;SDS011;26998;48.714;9.414;2022-10-26T15:53:53;6.72;;;2.58;;
41263;SDS011;26998;48.714;9.414;2022-10-26T15:56:23;5.68;;;2.22;;
41263;SDS011;26998;48.714;9.414;2022-10-26T15:58:51;4.15;;;2.00;;
41263;SDS011;26998;48.714;9.414;2022-10-26T16:01:20;8.00;;;2.20;;
41263;SDS011;26998;48.714;9.414;2022-10-26T16:03:49;8.25;;;2.92;;
41263;SDS011;26998;48.714;9.414;2022-10-26T16:06:26;5.82;;;2.42;;
41263;SDS011;26998;48.714;9.414;2022-10-26T16:08:56;5.72;;;2.67;;
41263;SDS011;26998;48.714;9.414;2022-10-26T16:11:24;7.28;;;2.78;;
41263;SDS011;26998;48.714;9.414;2022-10-26T16:13:50;10.57;;;3.63;;
41263;SDS011;26998;48.714;9.414;2022-10-26T16:16:17;10.65;;;3.58;;
41263;SDS011;26998;48.714;9.414;2022-10-26T16:18:44;9.52;;;5.22;;
41263;SDS011;26998;48.714;9.414;2022-10-26T16:21:12;9.98;;;3.70;;
41263;SDS011;26998;48.714;9.414;2022-10-26T16:23:39;11.32;;;5.07;;
41263;SDS011;26998;48.714;9.414;2022-10-26T16:26:07;10.82;;;4.90;;
41263;SDS011;26998;48.714;9.414;2022-10-26T16:28:34;11.55;;;4.50;;
41263;SDS011;26998;48.714;9.414;2022-10-26T16:31:06;14.25;;;3.67;;
41263;SDS011;26998;48.714;9.414;2022-10-26T16:33:35;7.60;;;4.13;;
41263;SDS011;26998;48.714;9.414;2022-10-26T16:36:02;10.68;;;4.00;;
41263;SDS011;26998;48.714;9.414;2022-10-26T16:38:31;10.90;;;5.43;;
41263;SDS011;26998;48.714;9.414;2022-10-26T16:43:35;14.18;;;5.05;;
41263;SDS011;26998;48.714;9.414;2022-10-26T16:46:07;9.00;;;4.43;;
41263;SDS011;26998;48.714;9.414;2022-10-26T16:48:36;13.95;;;4.53;;
41263;SDS011;26998;48.714;9.414;2022-10-26T16:51:14;15.40;;;5.07;;
41263;SDS011;26998;48.714;9.414;2022-10-26T16:53:42;13.52;;;4.88;;
41263;SDS011;26998;48.714;9.414;2022-10-26T16:56:13;8.45;;;4.47;;
41263;SDS011;26998;48.714;9.414;2022-10-26T16:58:43;11.05;;;4.55;;
41263;SDS011;26998;48.714;9.414;2022-10-26T17:01:10;11.40;;;4.15;;
41263;SDS011;26998;48.714;9.414;2022-10-26T17:03:38;11.57;;;4.35;;
41263;SDS011;26998;48.714;9.414;2022-10-26T17:06:05;18.17;;;5.55;;
41263;SDS011;26998;48.714;9.414;2022-10-26T17:08:33;12.73;;;4.30;;
41263;SDS011;26998;48.714;9.414;2022-10-26T17:11:10;15.82;;;4.45;;
41263;SDS011;26998;48.714;9.414;2022-10-26T17:13:40;12.13;;;4.30;;
41263;SDS011;26998;48.714;9.414;2022-10-26T17:16:09;9.13;;;4.93;;